Time;durP1;ratioP1;P1;durP2;ratioP2;P2;SDS_P1;SDS_P2;PMS_P1;PMS_P2;Temp;Humidity;BMP_temperature;BMP_pressure;BME280_temperature;BME280_humidity;BME280_pressure;Samples;Min_cycle;Max_cycle;Signal;HPM_P1;HPM_P2
2024/02/03 00:00:12;;;;;;;0.30;0.30;;;;;;;4.19;80.15;97746.75;4965596;28;20517;-61
2024/02/03 00:02:39;;;;;;;0.20;0.20;;;;;;;4.21;79.89;97755.47;4963704;28;20051;-62
2024/02/03 00:05:06;;;;;;;0.25;0.25;;;;;;;4.34;79.41;97786.69;4963942;28;20058;-62
2024/02/03 00:07:33;;;;;;;0.30;0.30;;;;;;;4.36;78.71;97768.81;4965737;28;20054;-62
2024/02/03 00:10:00;;;;;;;0.30;0.30;;;;;;;4.31;79.28;97760.72;4965651;28;20787;-63
2024/02/03 00:12:28;;;;;;;0.30;0.30;;;;;;;3.94;80.26;97714.50;4964198;28;20059;-63
2024/02/03 00:14:56;;;;;;;0.30;0.30;;;;;;;4.34;78.56;97782.03;4965255;28;20133;-61
2024/02/03 00:17:23;;;;;;;0.30;0.30;;;;;;;4.16;79.09;97763.81;4965387;28;20265;-61
2024/02/03 00:19:53;;;;;;;0.20;0.20;;;;;;;3.41;78.92;97642.38;4963380;28;20081;-64
2024/02/03 00:22:20;;;;;;;0.20;0.20;;;;;;;3.65;79.92;97692.16;4965289;28;20047;-64
2024/02/03 00:24:48;;;;;;;0.30;0.30;;;;;;;4.02;80.00;97779.53;4426087;28;10000578;-61
2024/02/03 00:27:15;;;;;;;0.30;0.30;;;;;;;3.96;79.77;97772.56;4973887;28;20054;-61
2024/02/03 00:29:42;;;;;;;0.30;0.30;;;;;;;3.30;79.55;97682.06;4965048;28;20055;-62
2024/02/03 00:32:08;;;;;;;0.20;0.20;;;;;;;3.81;80.71;97783.84;4965168;28;20063;-63
2024/02/03 00:34:35;;;;;;;0.30;0.30;;;;;;;3.53;80.46;97738.47;4975023;28;20062;-62
2024/02/03 00:37:03;;;;;;;0.30;0.30;;;;;;;3.72;80.66;97780.22;4986801;28;20073;-62
2024/02/03 00:39:30;;;;;;;0.20;0.20;;;;;;;3.72;80.86;97774.75;4971052;28;20062;-62
2024/02/03 00:41:57;;;;;;;0.20;0.20;;;;;;;3.72;80.65;97762.97;4968822;28;20086;-62
2024/02/03 00:44:24;;;;;;;0.30;0.30;;;;;;;3.36;80.71;97726.53;4969081;28;20077;-61
2024/02/03 00:46:50;;;;;;;0.30;0.30;;;;;;;3.51;81.40;97757.13;4968781;28;20133;-63
2024/02/03 00:49:17;;;;;;;0.20;0.20;;;;;;;3.45;81.48;97758.38;4968545;28;20070;-61
2024/02/03 00:51:44;;;;;;;0.22;0.22;;;;;;;2.83;81.75;97671.56;4968803;28;20504;-62
2024/02/03 00:54:11;;;;;;;0.20;0.20;;;;;;;3.14;81.81;97806.66;4983930;28;20173;-62
2024/02/03 00:56:38;;;;;;;0.25;0.25;;;;;;;3.21;81.83;97751.53;4968652;28;20054;-61
2024/02/03 00:59:05;;;;;;;0.20;0.20;;;;;;;3.04;81.93;97758.41;4968348;28;20070;-62
2024/02/03 01:01:31;;;;;;;0.20;0.20;;;;;;;2.89;82.85;97749.72;4968370;28;20690;-62
2024/02/03 01:03:59;;;;;;;0.20;0.20;;;;;;;2.70;82.69;97738.03;4968736;28;20183;-61
2024/02/03 01:06:26;;;;;;;0.20;0.20;;;;;;;2.43;82.63;97694.28;4968127;28;20062;-63
2024/02/03 01:08:53;;;;;;;0.20;0.20;;;;;;;2.71;83.40;97754.16;4968600;28;20082;-61
2024/02/03 01:11:20;;;;;;;0.20;0.20;;;;;;;2.61;83.60;97743.41;4966539;28;20525;-64
2024/02/03 01:13:47;;;;;;;0.30;0.30;;;;;;;2.24;83.58;97710.75;4968503;28;20051;-62
2024/02/03 01:16:15;;;;;;;0.20;0.20;;;;;;;2.18;83.97;97711.13;4967767;28;20053;-61
2024/02/03 01:18:42;;;;;;;0.20;0.20;;;;;;;2.45;83.78;97757.66;4968241;28;20296;-61
2024/02/03 01:21:17;;;;;;;0.20;0.20;;;;;;;2.32;84.57;97756.53;4968109;28;20057;-62
2024/02/03 01:23:44;;;;;;;0.22;0.22;;;;;;;2.36;84.86;97751.25;4968532;28;20073;-63
2024/02/03 01:26:11;;;;;;;0.20;0.20;;;;;;;2.22;84.87;97750.41;4982902;28;20063;-62
2024/02/03 01:28:38;;;;;;;0.20;0.20;;;;;;;1.83;85.54;97719.91;4983243;28;20055;-62
2024/02/03 01:31:05;;;;;;;0.28;0.28;;;;;;;2.09;84.81;97748.44;4968475;28;20054;-63
2024/02/03 01:33:31;;;;;;;0.25;0.25;;;;;;;2.04;85.31;97749.31;4968573;28;20153;-63
2024/02/03 01:35:59;;;;;;;0.20;0.20;;;;;;;1.49;85.04;97669.13;4987109;28;20054;-62
2024/02/03 01:38:25;;;;;;;0.20;0.20;;;;;;;1.84;84.91;97743.38;4985832;28;20049;-61
2024/02/03 01:40:53;;;;;;;0.20;0.20;;;;;;;0.98;85.17;97602.78;4987410;28;20147;-64
2024/02/03 01:43:19;;;;;;;0.30;0.30;;;;;;;1.26;84.44;97667.31;4987243;28;20061;-63
2024/02/03 01:45:46;;;;;;;0.20;0.20;;;;;;;1.69;85.55;97741.72;4986737;28;20061;-61
2024/02/03 01:48:13;;;;;;;0.20;0.20;;;;;;;1.64;84.99;97710.94;4986545;28;20136;-61
2024/02/03 01:50:44;;;;;;;0.20;0.20;;;;;;;1.63;85.54;97737.41;4987016;28;20104;-60
2024/02/03 01:53:12;;;;;;;0.20;0.20;;;;;;;1.51;86.21;97728.88;4987256;28;20511;-63
2024/02/03 01:55:39;;;;;;;0.20;0.20;;;;;;;1.58;85.11;97738.31;4986616;28;20050;-61
2024/02/03 01:58:06;;;;;;;0.20;0.20;;;;;;;1.07;86.30;97691.03;4985756;28;20056;-62
2024/02/03 02:00:33;;;;;;;0.20;0.20;;;;;;;1.31;87.81;97734.63;4985295;28;20054;-63
2024/02/03 02:03:00;;;;;;;0.20;0.20;;;;;;;1.41;87.65;97729.84;4985589;28;20398;-60
2024/02/03 02:05:28;;;;;;;0.20;0.20;;;;;;;1.18;87.15;97703.44;4986263;28;20064;-62
2024/02/03 02:07:56;;;;;;;0.20;0.20;;;;;;;0.98;86.58;97670.97;4986924;28;20050;-63
2024/02/03 02:10:22;;;;;;;0.20;0.20;;;;;;;1.24;86.33;97724.09;4985486;28;20360;-62
2024/02/03 02:12:49;;;;;;;0.20;0.20;;;;;;;0.49;85.98;97607.81;4985407;28;20050;-63
2024/02/03 02:15:17;;;;;;;0.30;0.30;;;;;;;1.17;86.73;97729.06;4986221;28;20061;-61
2024/02/03 02:17:44;;;;;;;0.20;0.20;;;;;;;-1.82;86.94;97251.44;4986910;28;20108;-63
2024/02/03 02:20:11;;;;;;;0.20;0.20;;;;;;;1.14;87.52;97724.22;4984963;28;20509;-63
2024/02/03 02:22:38;;;;;;;0.20;0.20;;;;;;;1.11;87.84;97722.06;4986639;28;20158;-61
2024/02/03 02:25:05;;;;;;;0.20;0.20;;;;;;;0.93;88.58;97694.78;4986452;28;20050;-62
2024/02/03 02:27:32;;;;;;;0.20;0.20;;;;;;;0.65;88.53;97654.81;4986553;28;20130;-61
2024/02/03 02:29:59;;;;;;;0.20;0.20;;;;;;;0.90;89.01;97723.44;4976412;28;20054;-59
2024/02/03 02:32:26;;;;;;;0.20;0.20;;;;;;;0.99;89.17;97732.59;4986213;28;20051;-61
2024/02/03 02:34:53;;;;;;;0.20;0.20;;;;;;;1.00;89.24;97728.75;4976142;28;20069;-61
2024/02/03 02:37:21;;;;;;;0.20;0.20;;;;;;;1.00;88.61;97728.75;4966722;28;20059;-63
2024/02/03 02:39:47;;;;;;;0.20;0.20;;;;;;;0.85;87.92;97709.88;4965148;28;20054;-62
2024/02/03 02:42:15;;;;;;;0.20;0.20;;;;;;;0.99;87.90;97739.97;4966474;28;20050;-61
2024/02/03 02:44:42;;;;;;;0.20;0.20;;;;;;;0.97;88.24;97740.25;4965316;28;20068;-63
2024/02/03 02:47:09;;;;;;;0.20;0.20;;;;;;;1.00;87.52;97739.66;4965069;28;20051;-61
2024/02/03 02:49:36;;;;;;;0.20;0.20;;;;;;;0.90;88.22;97760.81;4966051;28;20053;-62
2024/02/03 02:52:04;;;;;;;0.20;0.20;;;;;;;0.87;88.47;97740.38;4965241;28;20058;-62
2024/02/03 02:54:30;;;;;;;0.20;0.20;;;;;;;0.90;88.89;97749.91;4966533;28;20121;-62
2024/02/03 02:56:57;;;;;;;0.20;0.20;;;;;;;0.32;88.54;97650.31;4966367;28;20062;-63
2024/02/03 02:59:24;;;;;;;0.20;0.20;;;;;;;0.90;88.60;97744.44;4964234;28;20055;-61
2024/02/03 03:01:51;;;;;;;0.22;0.22;;;;;;;0.89;88.72;97731.91;4966149;28;20070;-61
2024/02/03 03:04:18;;;;;;;0.22;0.22;;;;;;;0.38;88.91;97681.81;4966216;28;20059;-63
2024/02/03 03:06:45;;;;;;;0.20;0.20;;;;;;;0.76;89.01;97738.88;4964739;28;20051;-61
2024/02/03 03:09:12;;;;;;;0.20;0.20;;;;;;;0.61;89.89;97735.50;4966031;28;20050;-63
2024/02/03 03:11:39;;;;;;;0.20;0.20;;;;;;;0.62;89.83;97732.50;4966092;28;20051;-63
2024/02/03 03:14:06;;;;;;;0.20;0.20;;;;;;;0.61;89.91;97730.88;4965172;28;20050;-61
2024/02/03 03:16:33;;;;;;;0.20;0.20;;;;;;;0.30;89.68;97691.41;4966388;28;20437;-62
2024/02/03 03:19:00;;;;;;;0.20;0.20;;;;;;;0.04;89.50;97638.34;4965979;28;20141;-61
2024/02/03 03:21:27;;;;;;;0.20;0.20;;;;;;;0.47;90.56;97729.94;4965696;28;20506;-62
2024/02/03 03:23:54;;;;;;;0.20;0.20;;;;;;;0.49;89.92;97727.72;4965796;28;20057;-61
2024/02/03 03:26:20;;;;;;;0.20;0.20;;;;;;;0.42;89.70;97715.56;4964249;28;20509;-61
2024/02/03 03:28:47;;;;;;;0.20;0.20;;;;;;;-0.42;89.95;97590.88;4965989;28;20058;-59
2024/02/03 03:31:14;;;;;;;0.20;0.20;;;;;;;0.32;90.66;97721.13;4965785;28;20062;-62
2024/02/03 03:33:41;;;;;;;0.20;0.20;;;;;;;0.22;90.66;97700.25;4965970;28;20502;-60
2024/02/03 03:36:09;;;;;;;0.20;0.20;;;;;;;-0.26;90.95;97608.69;4984942;28;20145;-62
2024/02/03 03:38:44;;;;;;;0.20;0.20;;;;;;;0.27;90.50;97688.50;4985463;28;20159;-60
2024/02/03 03:41:10;;;;;;;0.20;0.20;;;;;;;-0.09;90.15;97649.91;4983303;28;20629;-60
2024/02/03 03:43:38;;;;;;;0.20;0.20;;;;;;;0.14;89.67;97665.47;4983684;28;20077;-61
2024/02/03 03:46:08;;;;;;;0.20;0.20;;;;;;;0.12;89.77;97686.72;4984715;28;20120;-60
2024/02/03 03:48:34;;;;;;;0.28;0.28;;;;;;;0.26;88.90;97706.72;4985117;28;20183;-60
2024/02/03 03:51:01;;;;;;;0.20;0.20;;;;;;;0.29;88.11;97699.88;4984593;28;20137;-59
2024/02/03 03:53:28;;;;;;;0.20;0.20;;;;;;;0.27;88.63;97708.34;4984987;28;20054;-60
2024/02/03 03:55:54;;;;;;;0.20;0.20;;;;;;;-1.37;88.70;97447.66;4984600;28;20046;-61
2024/02/03 03:58:21;;;;;;;0.20;0.20;;;;;;;0.03;89.68;97674.84;4983475;28;20405;-61
2024/02/03 04:00:48;;;;;;;0.20;0.20;;;;;;;-0.69;90.50;97563.41;4984548;28;20514;-62
2024/02/03 04:03:15;;;;;;;0.20;0.20;;;;;;;-0.63;90.85;97568.50;4985054;28;20090;-59
2024/02/03 04:05:42;;;;;;;0.20;0.20;;;;;;;0.10;89.93;97685.38;4985165;28;20062;-60
2024/02/03 04:08:10;;;;;;;0.20;0.20;;;;;;;-0.09;90.07;97652.63;4983137;28;20488;-61
2024/02/03 04:10:37;;;;;;;0.20;0.20;;;;;;;-0.15;89.29;97640.16;4984431;28;20414;-61
2024/02/03 04:13:04;;;;;;;0.20;0.20;;;;;;;-0.73;88.62;97622.19;4983558;28;20478;-60
2024/02/03 04:15:31;;;;;;;0.20;0.20;;;;;;;-0.61;88.75;97576.38;4983238;28;20046;-61
2024/02/03 04:17:59;;;;;;;0.20;0.20;;;;;;;-0.18;89.30;97674.22;4982770;28;20050;-60
2024/02/03 04:20:26;;;;;;;0.20;0.20;;;;;;;-0.77;89.95;97599.34;4982755;28;20069;-60
2024/02/03 04:22:53;;;;;;;0.20;0.20;;;;;;;-0.62;90.47;97637.31;4984803;28;20060;-60
2024/02/03 04:25:20;;;;;;;0.20;0.20;;;;;;;-0.58;91.73;97660.13;4983759;28;20063;-60
2024/02/03 04:27:47;;;;;;;0.20;0.20;;;;;;;-0.41;91.79;97663.28;4984851;28;20050;-60
2024/02/03 04:30:14;;;;;;;0.20;0.20;;;;;;;-0.51;91.42;97642.41;4984591;28;20055;-59
2024/02/03 04:32:50;;;;;;;0.20;0.20;;;;;;;-0.28;90.87;97692.53;4983159;28;20054;-60
2024/02/03 04:35:17;;;;;;;0.20;0.20;;;;;;;-0.25;90.58;97692.78;4971559;28;20055;-59
2024/02/03 04:37:44;;;;;;;0.20;0.20;;;;;;;-0.25;91.09;97700.13;4963837;28;20074;-60
2024/02/03 04:40:11;;;;;;;0.20;0.20;;;;;;;-0.21;90.09;97706.66;4964887;28;20057;-61
2024/02/03 04:42:38;;;;;;;0.20;0.20;;;;;;;-0.25;89.87;97705.56;4965232;28;20438;-61
2024/02/03 04:45:06;;;;;;;0.20;0.20;;;;;;;-0.37;90.31;97702.41;4964797;28;20110;-59
2024/02/03 04:47:33;;;;;;;0.20;0.20;;;;;;;-0.26;89.97;97703.97;4965307;28;20065;-60
2024/02/03 04:50:00;;;;;;;0.20;0.20;;;;;;;-0.58;89.81;97651.97;4962952;28;20463;-61
2024/02/03 04:52:28;;;;;;;0.20;0.20;;;;;;;-0.23;89.39;97706.94;4964965;28;20046;-62
2024/02/03 04:54:54;;;;;;;0.20;0.20;;;;;;;-0.38;89.10;97666.22;4963309;28;20086;-60
2024/02/03 04:57:21;;;;;;;0.20;0.20;;;;;;;-0.25;89.31;97689.25;4963141;28;20117;-61
2024/02/03 04:59:48;;;;;;;0.20;0.20;;;;;;;-0.39;89.33;97669.22;4964560;28;20051;-62
2024/02/03 05:02:15;;;;;;;0.20;0.20;;;;;;;-0.41;89.49;97668.72;4964472;28;20468;-63
2024/02/03 05:04:42;;;;;;;0.20;0.20;;;;;;;-0.36;88.91;97676.81;4964956;28;20050;-61
2024/02/03 05:07:09;;;;;;;0.20;0.20;;;;;;;-0.37;89.61;97677.94;4964397;28;20065;-61
2024/02/03 05:09:36;;;;;;;0.20;0.20;;;;;;;-0.37;88.91;97670.59;4964830;28;20180;-61
2024/02/03 05:12:03;;;;;;;0.20;0.20;;;;;;;-0.44;88.93;97772.66;4964621;28;20051;-60
2024/02/03 05:14:31;;;;;;;0.15;0.15;;;;;;;-0.38;88.59;97673.59;4964729;28;20053;-61
2024/02/03 05:16:59;;;;;;;0.20;0.20;;;;;;;-0.38;88.96;97668.16;4964244;28;20613;-61
2024/02/03 05:19:27;;;;;;;0.20;0.20;;;;;;;-0.57;88.87;97659.06;4964619;28;20512;-60
2024/02/03 05:21:56;;;;;;;0.20;0.20;;;;;;;-0.47;89.22;97675.28;4965443;28;20199;-61
2024/02/03 05:24:22;;;;;;;0.20;0.20;;;;;;;-0.48;89.67;97673.66;4968652;28;20050;-60
2024/02/03 05:26:49;;;;;;;0.20;0.20;;;;;;;-0.49;89.38;97680.22;4966549;28;20050;-61
2024/02/03 05:29:16;;;;;;;0.20;0.20;;;;;;;-0.52;89.27;97678.06;4966653;28;20050;-60
2024/02/03 05:31:43;;;;;;;0.20;0.20;;;;;;;-0.55;89.49;97673.16;4967674;28;20812;-60
2024/02/03 05:34:11;;;;;;;0.20;0.20;;;;;;;-0.47;89.40;97672.56;4971059;28;20054;-60
2024/02/03 05:36:38;;;;;;;0.20;0.20;;;;;;;-0.55;88.47;97662.28;4987029;28;20517;-61
2024/02/03 05:39:05;;;;;;;0.20;0.20;;;;;;;-0.50;88.64;97681.28;4985726;28;20050;-61
2024/02/03 05:41:32;;;;;;;0.20;0.20;;;;;;;-0.51;88.56;97685.13;4987123;28;20050;-61
2024/02/03 05:43:59;;;;;;;0.20;0.20;;;;;;;-0.50;89.46;97671.22;4987294;28;20408;-60
2024/02/03 05:46:25;;;;;;;0.20;0.20;;;;;;;-0.40;89.54;97670.34;4985847;28;20054;-60
2024/02/03 05:48:54;;;;;;;0.20;0.20;;;;;;;-0.58;89.20;97657.41;4987464;28;20050;-60
2024/02/03 05:51:21;;;;;;;0.20;0.20;;;;;;;-0.47;88.88;97678.00;4987005;28;20075;-61
2024/02/03 05:53:48;;;;;;;0.20;0.20;;;;;;;-0.44;89.74;97674.72;4987139;28;20481;-61
2024/02/03 05:56:15;;;;;;;0.20;0.20;;;;;;;-0.52;88.74;97669.91;4987047;28;20050;-61
2024/02/03 05:58:44;;;;;;;0.20;0.20;;;;;;;-0.35;88.55;97673.03;4987726;28;20054;-60
2024/02/03 06:01:11;;;;;;;0.20;0.20;;;;;;;-0.47;88.41;97653.50;4986619;28;20046;-61
2024/02/03 06:03:38;;;;;;;0.20;0.20;;;;;;;-0.58;87.06;97633.75;4986827;28;20054;-62
2024/02/03 06:06:05;;;;;;;0.20;0.20;;;;;;;-0.17;86.48;97691.34;4986549;28;20633;-60
2024/02/03 06:08:51;;;;;;;0.20;0.20;;;;;;;-0.11;85.64;97699.19;4986881;28;20054;-61
2024/02/03 06:11:18;;;;;;;0.20;0.20;;;;;;;-0.53;85.76;97624.72;4986537;28;20565;-60
2024/02/03 06:13:45;;;;;;;0.20;0.20;;;;;;;-0.02;86.54;97688.50;4987079;28;20092;-61
2024/02/03 06:16:12;;;;;;;0.20;0.20;;;;;;;-0.04;86.50;97663.47;4985236;28;20425;-61
2024/02/03 06:18:39;;;;;;;0.20;0.20;;;;;;;0.13;85.96;97672.00;4986499;28;20072;-63
2024/02/03 06:21:06;;;;;;;0.20;0.20;;;;;;;-0.27;85.61;97616.03;4986194;28;20050;-63
2024/02/03 06:23:33;;;;;;;0.20;0.20;;;;;;;0.38;85.33;97677.16;4986835;28;20545;-61
2024/02/03 06:26:00;;;;;;;0.20;0.20;;;;;;;0.13;84.99;97612.09;4984834;28;20481;-60
2024/02/03 06:28:26;;;;;;;0.20;0.20;;;;;;;0.65;84.49;97677.41;4986529;28;20068;-63
2024/02/03 06:30:53;;;;;;;0.20;0.20;;;;;;;0.43;83.66;97624.56;4986536;28;20485;-61
2024/02/03 06:33:20;;;;;;;0.20;0.20;;;;;;;0.87;82.57;97685.84;4985968;28;20141;-61
2024/02/03 06:35:47;;;;;;;0.20;0.20;;;;;;;0.83;82.19;97684.81;4970019;28;20063;-61
2024/02/03 06:38:14;;;;;;;0.20;0.20;;;;;;;0.88;82.78;97670.28;4966681;28;20054;-61
2024/02/03 06:40:41;;;;;;;0.20;0.20;;;;;;;1.11;82.87;97681.16;4966824;28;20282;-63
2024/02/03 06:43:08;;;;;;;0.20;0.20;;;;;;;1.24;82.99;97655.88;4966612;28;20089;-63
2024/02/03 06:45:35;;;;;;;0.28;0.28;;;;;;;1.54;81.37;97679.97;4966269;28;20070;-62
2024/02/03 06:48:02;;;;;;;0.20;0.20;;;;;;;1.77;80.47;97678.22;4966823;28;20168;-61
2024/02/03 06:50:29;;;;;;;0.20;0.20;;;;;;;1.93;79.99;97676.06;4965250;28;20239;-62
2024/02/03 06:52:56;;;;;;;0.30;0.30;;;;;;;1.52;79.55;97562.06;4966514;28;20433;-63
2024/02/03 06:55:23;;;;;;;0.20;0.20;;;;;;;2.20;78.06;97626.91;4966065;28;20477;-63
2024/02/03 06:57:49;;;;;;;0.20;0.20;;;;;;;2.36;78.34;97628.22;4965039;28;20588;-61
2024/02/03 07:00:16;;;;;;;0.20;0.20;;;;;;;2.65;78.16;97650.63;4966157;28;20062;-62
2024/02/03 07:02:43;;;;;;;0.20;0.20;;;;;;;2.81;78.37;97646.47;4966631;28;20051;-62
2024/02/03 07:05:10;;;;;;;0.20;0.20;;;;;;;2.99;77.96;97650.97;4966059;28;20051;-61
2024/02/03 07:07:37;;;;;;;0.30;0.30;;;;;;;3.19;78.58;97649.72;4964942;28;20177;-63
2024/02/03 07:10:04;;;;;;;0.28;0.28;;;;;;;2.98;77.86;97617.34;4966268;28;20054;-63
2024/02/03 07:12:31;;;;;;;0.30;0.30;;;;;;;3.55;76.73;97648.59;4966259;28;20514;-63
2024/02/03 07:14:58;;;;;;;0.30;0.30;;;;;;;3.36;74.21;97606.91;4965756;28;20130;-63
2024/02/03 07:17:24;;;;;;;0.20;0.20;;;;;;;3.81;72.36;97652.31;4963866;28;20054;-63
2024/02/03 07:19:51;;;;;;;0.20;0.20;;;;;;;3.44;71.49;97556.88;4964767;28;20063;-63
2024/02/03 07:22:18;;;;;;;0.30;0.30;;;;;;;3.39;70.52;97546.03;4964504;28;20148;-63
2024/02/03 07:24:45;;;;;;;0.30;0.30;;;;;;;4.21;70.96;97662.25;4947076;28;20510;-62
2024/02/03 07:27:12;;;;;;;0.30;0.30;;;;;;;4.45;69.29;97651.75;4965862;28;20517;-61
2024/02/03 07:29:39;;;;;;;0.30;0.30;;;;;;;4.44;69.52;97649.31;4980497;28;20077;-61
2024/02/03 07:32:06;;;;;;;0.30;0.30;;;;;;;4.65;69.26;97656.66;4982246;28;20061;-63
2024/02/03 07:34:33;;;;;;;0.30;0.30;;;;;;;4.98;69.14;97637.06;4984608;28;20074;-62
2024/02/03 07:37:00;;;;;;;0.30;0.30;;;;;;;5.20;68.36;97639.69;4982392;28;20057;-62
2024/02/03 07:39:27;;;;;;;0.30;0.30;;;;;;;5.34;67.71;97634.84;4983673;28;20054;-65
2024/02/03 07:41:54;;;;;;;0.30;0.30;;;;;;;5.42;66.66;97614.81;4982899;28;20058;-61
2024/02/03 07:44:21;;;;;;;0.30;0.30;;;;;;;5.72;66.92;97622.09;4983351;28;20493;-65
2024/02/03 07:46:48;;;;;;;0.30;0.30;;;;;;;5.94;66.08;97619.19;4959546;28;20058;-63
2024/02/03 07:49:15;;;;;;;0.30;0.30;;;;;;;5.84;65.16;97590.09;4986184;28;20054;-63
2024/02/03 07:51:42;;;;;;;0.30;0.30;;;;;;;5.94;64.74;97577.94;4983568;28;20078;-63
2024/02/03 07:54:09;;;;;;;0.30;0.30;;;;;;;5.91;63.39;97562.88;4983526;28;20947;-67
2024/02/03 07:56:36;;;;;;;0.32;0.32;;;;;;;5.64;63.18;97529.47;4982789;28;20050;-62
2024/02/03 07:59:02;;;;;;;0.38;0.38;;;;;;;6.58;61.23;97626.25;4983264;28;20502;-62
2024/02/03 08:01:29;;;;;;;0.40;0.40;;;;;;;6.74;60.34;97618.25;4983274;28;20729;-62
2024/02/03 08:03:56;;;;;;;0.30;0.30;;;;;;;6.54;58.53;97574.97;4983767;28;20604;-69
2024/02/03 08:06:23;;;;;;;0.40;0.40;;;;;;;6.58;57.28;97549.19;4977900;28;20432;-60
2024/02/03 08:08:50;;;;;;;0.30;0.30;;;;;;;7.17;58.07;97622.38;4965043;28;20051;-59
2024/02/03 08:11:16;;;;;;;0.30;0.30;;;;;;;7.36;57.37;97624.66;4964094;28;20090;-58
2024/02/03 08:13:43;;;;;;;0.40;0.40;;;;;;;7.34;56.54;97605.72;4981232;28;20068;-59
2024/02/03 08:16:10;;;;;;;0.40;0.40;;;;;;;7.16;56.79;97565.66;4983206;28;20085;-58
2024/02/03 08:18:37;;;;;;;0.30;0.30;;;;;;;7.55;57.06;97617.56;4983057;28;20513;-65
2024/02/03 08:21:04;;;;;;;0.40;0.40;;;;;;;7.63;56.80;97597.34;4984011;28;20176;-59
2024/02/03 08:23:31;;;;;;;0.35;0.35;;;;;;;7.61;56.08;97580.38;4982124;28;20050;-62
2024/02/03 08:25:58;;;;;;;0.40;0.40;;;;;;;7.83;56.45;97578.38;4983156;28;20055;-61
2024/02/03 08:28:25;;;;;;;0.32;0.32;;;;;;;7.89;55.69;97599.09;4983400;28;20788;-63
2024/02/03 08:30:51;;;;;;;0.40;0.40;;;;;;;7.59;54.94;97557.84;4983391;28;20047;-59
2024/02/03 08:33:18;;;;;;;0.40;0.40;;;;;;;7.76;55.72;97564.34;4981863;28;20058;-66
2024/02/03 08:35:45;;;;;;;0.40;0.40;;;;;;;7.93;54.70;97588.97;4982044;28;20378;-64
2024/02/03 08:38:12;;;;;;;0.40;0.40;;;;;;;8.15;54.14;97603.19;4982527;28;20058;-59
2024/02/03 08:40:39;;;;;;;0.40;0.40;;;;;;;8.07;53.05;97575.69;4981647;28;20064;-67
2024/02/03 08:43:06;;;;;;;0.40;0.40;;;;;;;8.44;52.24;97605.03;4982324;28;20128;-63
2024/02/03 08:45:33;;;;;;;0.40;0.40;;;;;;;8.26;52.03;97565.78;4981489;28;20884;-61
2024/02/03 08:47:59;;;;;;;0.40;0.40;;;;;;;8.18;52.62;97535.47;4980748;28;20054;-64
2024/02/03 08:50:27;;;;;;;0.40;0.40;;;;;;;8.48;54.92;97611.44;4980117;28;20062;-61
2024/02/03 08:52:54;;;;;;;0.40;0.40;;;;;;;8.18;55.49;97524.44;4979132;28;20492;-64
2024/02/03 08:55:21;;;;;;;0.40;0.40;;;;;;;8.63;53.37;97591.47;4981526;28;20053;-61
2024/02/03 08:57:47;;;;;;;0.40;0.40;;;;;;;8.58;54.37;97594.44;4967998;28;20050;-62
2024/02/03 09:00:15;;;;;;;0.40;0.40;;;;;;;8.51;53.37;97572.13;4985997;28;20054;-63
2024/02/03 09:02:42;;;;;;;0.40;0.40;;;;;;;7.74;54.08;97504.81;4978163;28;20047;-63
2024/02/03 09:05:09;;;;;;;0.40;0.40;;;;;;;8.56;53.53;97596.75;4984004;28;20498;-64
2024/02/03 09:07:36;;;;;;;0.40;0.40;;;;;;;8.30;53.51;97560.38;4986284;28;20058;-67
2024/02/03 09:10:04;;;;;;;0.40;0.40;;;;;;;8.40;53.89;97599.38;4985229;28;20061;-63
2024/02/03 09:12:31;;;;;;;0.40;0.40;;;;;;;8.46;53.94;97588.91;4985934;28;20057;-63
2024/02/03 09:14:58;;;;;;;0.40;0.40;;;;;;;8.55;53.95;97595.91;4983197;28;20073;-63
2024/02/03 09:17:25;;;;;;;0.40;0.40;;;;;;;8.41;53.28;97595.44;4985514;28;20169;-64
2024/02/03 09:19:51;;;;;;;0.43;0.43;;;;;;;8.49;51.90;97604.78;4985437;28;20050;-59
2024/02/03 09:22:19;;;;;;;0.40;0.40;;;;;;;8.59;51.06;97596.03;4984879;28;20563;-61
2024/02/03 09:24:46;;;;;;;0.40;0.40;;;;;;;8.58;52.00;97588.94;4985052;28;20052;-61
2024/02/03 09:27:12;;;;;;;0.35;0.35;;;;;;;8.33;53.30;97579.00;4984386;28;20182;-62
2024/02/03 09:29:40;;;;;;;0.40;0.40;;;;;;;8.65;52.14;97572.56;4984905;28;20448;-62
2024/02/03 09:32:10;;;;;;;0.40;0.40;;;;;;;5.67;51.61;97116.63;4984332;28;20064;-62
2024/02/03 09:34:37;;;;;;;0.40;0.40;;;;;;;8.66;51.26;97558.41;4985807;28;20077;-63
2024/02/03 09:37:04;;;;;;;0.40;0.40;;;;;;;8.58;51.70;97564.06;4986820;28;20081;-60
2024/02/03 09:39:33;;;;;;;0.40;0.40;;;;;;;8.83;50.47;97562.91;4986929;28;20054;-66
2024/02/03 09:42:00;;;;;;;0.40;0.40;;;;;;;8.74;50.46;97553.94;4986721;28;20049;-64
2024/02/03 09:44:27;;;;;;;0.43;0.43;;;;;;;8.77;50.03;97525.63;4986611;28;20492;-64
2024/02/03 09:46:55;;;;;;;0.50;0.50;;;;;;;8.95;48.67;97551.84;4986143;28;20090;-60
2024/02/03 09:49:22;;;;;;;0.50;0.50;;;;;;;8.99;49.42;97561.06;4986085;28;20050;-64
2024/02/03 09:51:50;;;;;;;0.40;0.40;;;;;;;6.90;48.43;97242.06;4986230;28;20081;-64
2024/02/03 09:54:17;;;;;;;0.43;0.43;;;;;;;9.26;48.23;97527.16;4985370;28;20525;-62
2024/02/03 09:56:46;;;;;;;0.50;0.50;;;;;;;9.69;48.21;97535.50;4984825;28;20109;-65
2024/02/03 09:59:14;;;;;;;0.40;0.40;;;;;;;9.73;47.80;97539.19;4986174;28;20343;-69
2024/02/03 10:01:50;;;;;;;0.40;0.40;;;;;;;9.73;46.96;97522.59;4985164;28;20081;-59
2024/02/03 10:04:17;;;;;;;0.50;0.50;;;;;;;8.85;48.33;97494.31;4818756;28;5001084;-59
2024/02/03 10:06:44;;;;;;;0.40;0.40;;;;;;;8.92;49.14;97522.16;4991981;28;20129;-63
2024/02/03 10:09:24;;;;;;;0.40;0.40;;;;;;;9.17;48.22;97519.00;4984679;28;20129;-60
2024/02/03 10:11:51;;;;;;;0.43;0.43;;;;;;;9.70;47.72;97526.06;4986341;28;20061;-63
2024/02/03 10:14:18;;;;;;;0.50;0.50;;;;;;;10.04;47.35;97506.03;4986639;28;20073;-63
2024/02/03 10:16:49;;;;;;;0.50;0.50;;;;;;;10.56;45.96;97508.56;4984588;28;20059;-60
2024/02/03 10:19:16;;;;;;;0.50;0.50;;;;;;;10.76;44.88;97501.13;4985977;28;20057;-60
2024/02/03 10:21:43;;;;;;;0.47;0.47;;;;;;;10.54;44.67;97450.75;4985919;28;20054;-66
2024/02/03 10:24:10;;;;;;;0.50;0.50;;;;;;;11.26;44.56;97501.09;4984719;28;20540;-57
2024/02/03 10:26:37;;;;;;;0.50;0.50;;;;;;;11.48;43.92;97492.03;4985347;28;20225;-62
2024/02/03 10:29:04;;;;;;;0.50;0.50;;;;;;;11.90;43.91;97456.84;4985165;28;20054;-68
2024/02/03 10:31:31;;;;;;;0.60;0.60;;;;;;;11.62;43.64;97475.69;4982089;28;20047;-67
2024/02/03 10:34:04;;;;;;;0.50;0.50;;;;;;;11.32;43.67;97463.56;4984530;28;20093;-61
2024/02/03 10:36:31;;;;;;;0.50;0.50;;;;;;;11.76;43.32;97467.69;4980950;28;20062;-68
2024/02/03 10:38:58;;;;;;;0.60;0.60;;;;;;;11.94;42.34;97458.50;4985064;28;20173;-60
2024/02/03 10:41:32;;;;;;;0.50;0.50;;;;;;;9.78;41.60;97101.84;4983678;28;20190;-63
2024/02/03 10:44:03;;;;;;;0.60;0.60;;;;;;;11.24;41.17;97340.63;4984163;28;20066;-59
2024/02/03 10:46:31;;;;;;;0.50;0.50;;;;;;;12.00;40.79;97445.09;4979094;28;20050;-62
2024/02/03 10:49:00;;;;;;;0.50;0.50;;;;;;;11.09;41.65;97432.19;4978726;28;20046;-61
2024/02/03 10:51:30;;;;;;;0.50;0.50;;;;;;;11.36;41.59;97426.44;4985318;28;20678;-58
2024/02/03 10:54:14;;;;;;;0.50;0.50;;;;;;;11.07;41.83;97412.34;4983477;28;20054;-68
2024/02/03 10:56:42;;;;;;;0.50;0.50;;;;;;;10.97;42.40;97418.50;4984918;28;20050;-57
2024/02/03 10:59:09;;;;;;;0.50;0.50;;;;;;;10.88;42.70;97418.69;4984010;28;20050;-62
2024/02/03 11:01:41;;;;;;;0.50;0.50;;;;;;;10.67;42.86;97421.78;4984638;28;20050;-60
2024/02/03 11:04:08;;;;;;;0.50;0.50;;;;;;;10.55;43.40;97413.59;4985720;28;20085;-61
2024/02/03 11:06:35;;;;;;;0.50;0.50;;;;;;;10.26;43.80;97405.78;4984008;28;20129;-60
2024/02/03 11:09:20;;;;;;;0.50;0.50;;;;;;;10.67;43.64;97404.34;4983914;28;20081;-61
2024/02/03 11:11:49;;;;;;;0.50;0.50;;;;;;;10.90;42.99;97393.38;4982697;28;20061;-61
2024/02/03 11:14:17;;;;;;;0.50;0.50;;;;;;;11.12;42.58;97392.66;4984147;28;20060;-61
2024/02/03 11:17:05;;;;;;;0.45;0.45;;;;;;;10.69;43.09;97321.69;4985303;28;20092;-61
2024/02/03 11:19:35;;;;;;;0.50;0.50;;;;;;;10.93;43.08;97382.38;4984297;28;20058;-60
2024/02/03 11:22:04;;;;;;;0.50;0.50;;;;;;;11.34;42.99;97389.94;4985241;28;20082;-61
2024/02/03 11:24:34;;;;;;;0.50;0.50;;;;;;;11.12;42.71;97320.56;4984977;28;20100;-60
2024/02/03 11:27:03;;;;;;;0.50;0.50;;;;;;;11.45;42.26;97368.75;4985349;28;20061;-60
2024/02/03 11:29:31;;;;;;;0.50;0.50;;;;;;;11.40;42.44;97373.78;4984137;28;20058;-61
2024/02/03 11:32:06;;;;;;;0.52;0.52;;;;;;;11.17;42.63;97334.13;4985281;28;20124;-61
2024/02/03 11:34:35;;;;;;;0.50;0.50;;;;;;;11.31;42.99;97362.13;4985472;28;20133;-59
2024/02/03 11:37:16;;;;;;;0.50;0.50;;;;;;;11.15;44.24;97358.66;3133127;28;10022611;-59
2024/02/03 11:39:43;;;;;;;0.50;0.50;;;;;;;11.20;44.56;97344.50;4577747;28;10000523;-60